sensor_id;sensor_type;location;lat;lon;timestamp;P1;durP1;ratioP1;P2;durP2;ratioP2
1577;SDS011;57623;53.608;10.004;2023-07-20T00:00:49;3.17;;;2.37;;
1577;SDS011;57623;53.608;10.004;2023-07-20T00:03:20;1.80;;;1.70;;
1577;SDS011;57623;53.608;10.004;2023-07-20T00:05:49;2.50;;;2.30;;
1577;SDS011;57623;53.608;10.004;2023-07-20T00:08:17;2.30;;;2.20;;
1577;SDS011;57623;53.608;10.004;2023-07-20T00:10:45;3.77;;;2.87;;
1577;SDS011;57623;53.608;10.004;2023-07-20T00:13:15;2.73;;;2.47;;
1577;SDS011;57623;53.608;10.004;2023-07-20T00:15:45;2.50;;;2.30;;
1577;SDS011;57623;53.608;10.004;2023-07-20T00:18:13;3.77;;;2.40;;
1577;SDS011;57623;53.608;10.004;2023-07-20T00:20:41;2.50;;;2.30;;
1577;SDS011;57623;53.608;10.004;2023-07-20T00:23:09;2.30;;;2.10;;
1577;SDS011;57623;53.608;10.004;2023-07-20T00:25:37;3.10;;;2.00;;
1577;SDS011;57623;53.608;10.004;2023-07-20T00:28:05;2.20;;;2.10;;
1577;SDS011;57623;53.608;10.004;2023-07-20T00:30:34;3.20;;;2.23;;
1577;SDS011;57623;53.608;10.004;2023-07-20T00:33:02;2.23;;;2.03;;
1577;SDS011;57623;53.608;10.004;2023-07-20T00:35:31;2.37;;;2.17;;
1577;SDS011;57623;53.608;10.004;2023-07-20T00:37:59;3.13;;;2.23;;
1577;SDS011;57623;53.608;10.004;2023-07-20T00:40:27;3.13;;;2.30;;
1577;SDS011;57623;53.608;10.004;2023-07-20T00:42:55;2.93;;;2.70;;
1577;SDS011;57623;53.608;10.004;2023-07-20T00:45:23;2.47;;;2.33;;
1577;SDS011;57623;53.608;10.004;2023-07-20T00:47:54;2.63;;;2.43;;
1577;SDS011;57623;53.608;10.004;2023-07-20T00:50:22;2.73;;;2.50;;
1577;SDS011;57623;53.608;10.004;2023-07-20T00:52:51;2.70;;;2.50;;
1577;SDS011;57623;53.608;10.004;2023-07-20T00:55:19;3.20;;;2.97;;
1577;SDS011;57623;53.608;10.004;2023-07-20T00:57:47;2.63;;;2.43;;
1577;SDS011;57623;53.608;10.004;2023-07-20T01:00:16;2.80;;;2.60;;
1577;SDS011;57623;53.608;10.004;2023-07-20T01:02:44;2.90;;;2.70;;
1577;SDS011;57623;53.608;10.004;2023-07-20T01:05:14;3.20;;;3.00;;
1577;SDS011;57623;53.608;10.004;2023-07-20T01:07:46;3.20;;;2.90;;
1577;SDS011;57623;53.608;10.004;2023-07-20T01:10:20;3.13;;;2.83;;
1577;SDS011;57623;53.608;10.004;2023-07-20T01:12:54;3.30;;;3.00;;
1577;SDS011;57623;53.608;10.004;2023-07-20T01:15:23;3.37;;;3.07;;
1577;SDS011;57623;53.608;10.004;2023-07-20T01:17:51;3.17;;;2.93;;
1577;SDS011;57623;53.608;10.004;2023-07-20T01:20:21;3.50;;;3.20;;
1577;SDS011;57623;53.608;10.004;2023-07-20T01:22:57;3.00;;;2.80;;
1577;SDS011;57623;53.608;10.004;2023-07-20T01:25:45;3.40;;;3.20;;
1577;SDS011;57623;53.608;10.004;2023-07-20T01:28:39;3.33;;;3.10;;
1577;SDS011;57623;53.608;10.004;2023-07-20T01:31:25;4.43;;;3.40;;
1577;SDS011;57623;53.608;10.004;2023-07-20T01:33:57;3.93;;;3.60;;
1577;SDS011;57623;53.608;10.004;2023-07-20T01:36:28;4.00;;;3.70;;
1577;SDS011;57623;53.608;10.004;2023-07-20T01:38:58;3.80;;;3.50;;
1577;SDS011;57623;53.608;10.004;2023-07-20T01:41:26;3.80;;;3.50;;
1577;SDS011;57623;53.608;10.004;2023-07-20T01:43:57;3.60;;;3.30;;
1577;SDS011;57623;53.608;10.004;2023-07-20T01:46:27;3.80;;;3.50;;
1577;SDS011;57623;53.608;10.004;2023-07-20T01:48:55;4.70;;;3.60;;
1577;SDS011;57623;53.608;10.004;2023-07-20T01:51:23;4.13;;;3.77;;
1577;SDS011;57623;53.608;10.004;2023-07-20T01:53:51;4.40;;;3.60;;
1577;SDS011;57623;53.608;10.004;2023-07-20T01:56:19;4.30;;;3.67;;
1577;SDS011;57623;53.608;10.004;2023-07-20T01:58:47;3.77;;;3.47;;
1577;SDS011;57623;53.608;10.004;2023-07-20T02:01:15;3.50;;;3.20;;
1577;SDS011;57623;53.608;10.004;2023-07-20T02:03:45;3.63;;;3.33;;
1577;SDS011;57623;53.608;10.004;2023-07-20T02:06:13;5.00;;;3.90;;
1577;SDS011;57623;53.608;10.004;2023-07-20T02:08:41;3.60;;;3.30;;
1577;SDS011;57623;53.608;10.004;2023-07-20T02:11:09;3.67;;;3.27;;
1577;SDS011;57623;53.608;10.004;2023-07-20T02:13:37;3.77;;;3.53;;
1577;SDS011;57623;53.608;10.004;2023-07-20T02:16:05;4.10;;;3.80;;
1577;SDS011;57623;53.608;10.004;2023-07-20T02:18:33;3.83;;;3.53;;
1577;SDS011;57623;53.608;10.004;2023-07-20T02:21:02;3.53;;;3.23;;
1577;SDS011;57623;53.608;10.004;2023-07-20T02:23:30;4.37;;;3.97;;
1577;SDS011;57623;53.608;10.004;2023-07-20T02:25:59;4.50;;;4.10;;
1577;SDS011;57623;53.608;10.004;2023-07-20T02:28:27;4.23;;;3.93;;
1577;SDS011;57623;53.608;10.004;2023-07-20T02:30:55;4.13;;;3.87;;
1577;SDS011;57623;53.608;10.004;2023-07-20T02:33:23;3.80;;;3.50;;
1577;SDS011;57623;53.608;10.004;2023-07-20T02:35:51;4.23;;;3.93;;
1577;SDS011;57623;53.608;10.004;2023-07-20T02:38:20;4.00;;;3.60;;
1577;SDS011;57623;53.608;10.004;2023-07-20T02:40:48;3.90;;;3.60;;
1577;SDS011;57623;53.608;10.004;2023-07-20T02:43:16;3.30;;;3.00;;
1577;SDS011;57623;53.608;10.004;2023-07-20T02:45:44;3.60;;;3.33;;
1577;SDS011;57623;53.608;10.004;2023-07-20T02:48:12;3.47;;;3.17;;
1577;SDS011;57623;53.608;10.004;2023-07-20T02:50:40;3.43;;;2.97;;
1577;SDS011;57623;53.608;10.004;2023-07-20T02:53:09;3.20;;;3.00;;
1577;SDS011;57623;53.608;10.004;2023-07-20T02:55:38;4.07;;;3.77;;
1577;SDS011;57623;53.608;10.004;2023-07-20T02:58:06;3.40;;;3.20;;
1577;SDS011;57623;53.608;10.004;2023-07-20T03:00:34;3.07;;;2.87;;
1577;SDS011;57623;53.608;10.004;2023-07-20T03:03:02;3.47;;;3.27;;
1577;SDS011;57623;53.608;10.004;2023-07-20T03:05:30;3.50;;;3.20;;
1577;SDS011;57623;53.608;10.004;2023-07-20T03:07:58;4.53;;;3.23;;
1577;SDS011;57623;53.608;10.004;2023-07-20T03:10:28;4.00;;;3.40;;
1577;SDS011;57623;53.608;10.004;2023-07-20T03:12:58;4.00;;;3.60;;
1577;SDS011;57623;53.608;10.004;2023-07-20T03:15:26;3.87;;;3.57;;
1577;SDS011;57623;53.608;10.004;2023-07-20T03:17:55;4.00;;;3.70;;
1577;SDS011;57623;53.608;10.004;2023-07-20T03:20:24;4.70;;;4.30;;
1577;SDS011;57623;53.608;10.004;2023-07-20T03:22:53;3.97;;;3.50;;
1577;SDS011;57623;53.608;10.004;2023-07-20T03:25:21;4.10;;;3.80;;
1577;SDS011;57623;53.608;10.004;2023-07-20T03:27:51;4.00;;;3.70;;
1577;SDS011;57623;53.608;10.004;2023-07-20T03:30:20;4.10;;;3.80;;
1577;SDS011;57623;53.608;10.004;2023-07-20T03:32:49;4.33;;;3.40;;
1577;SDS011;57623;53.608;10.004;2023-07-20T03:35:17;4.20;;;3.60;;
1577;SDS011;57623;53.608;10.004;2023-07-20T03:37:45;2.90;;;2.70;;
1577;SDS011;57623;53.608;10.004;2023-07-20T03:40:13;3.17;;;2.97;;
1577;SDS011;57623;53.608;10.004;2023-07-20T03:42:42;3.43;;;3.20;;
1577;SDS011;57623;53.608;10.004;2023-07-20T03:45:10;3.30;;;3.00;;
1577;SDS011;57623;53.608;10.004;2023-07-20T03:47:39;3.23;;;3.03;;
1577;SDS011;57623;53.608;10.004;2023-07-20T03:50:07;3.23;;;3.03;;
1577;SDS011;57623;53.608;10.004;2023-07-20T03:52:36;3.70;;;3.40;;
1577;SDS011;57623;53.608;10.004;2023-07-20T03:55:05;3.70;;;3.40;;
1577;SDS011;57623;53.608;10.004;2023-07-20T03:57:33;3.57;;;3.03;;
1577;SDS011;57623;53.608;10.004;2023-07-20T04:00:01;3.00;;;2.80;;
1577;SDS011;57623;53.608;10.004;2023-07-20T04:02:33;3.63;;;3.40;;
1577;SDS011;57623;53.608;10.004;2023-07-20T04:05:02;3.53;;;3.30;;
1577;SDS011;57623;53.608;10.004;2023-07-20T04:07:30;3.67;;;3.37;;
1577;SDS011;57623;53.608;10.004;2023-07-20T04:09:58;4.00;;;3.33;;
1577;SDS011;57623;53.608;10.004;2023-07-20T04:12:26;3.90;;;3.60;;
1577;SDS011;57623;53.608;10.004;2023-07-20T04:14:54;3.47;;;3.17;;
1577;SDS011;57623;53.608;10.004;2023-07-20T04:17:22;3.73;;;3.43;;
1577;SDS011;57623;53.608;10.004;2023-07-20T04:19:50;3.43;;;3.13;;
1577;SDS011;57623;53.608;10.004;2023-07-20T04:22:19;3.73;;;3.43;;
1577;SDS011;57623;53.608;10.004;2023-07-20T04:24:47;3.37;;;3.17;;
1577;SDS011;57623;53.608;10.004;2023-07-20T04:27:15;3.63;;;3.33;;
1577;SDS011;57623;53.608;10.004;2023-07-20T04:29:43;3.13;;;2.93;;
1577;SDS011;57623;53.608;10.004;2023-07-20T04:32:11;3.70;;;3.40;;
1577;SDS011;57623;53.608;10.004;2023-07-20T04:34:39;4.17;;;3.87;;
1577;SDS011;57623;53.608;10.004;2023-07-20T04:37:08;3.73;;;3.47;;
1577;SDS011;57623;53.608;10.004;2023-07-20T04:39:37;3.90;;;3.60;;
1577;SDS011;57623;53.608;10.004;2023-07-20T04:42:06;3.97;;;3.27;;
1577;SDS011;57623;53.608;10.004;2023-07-20T04:44:34;3.27;;;3.07;;
1577;SDS011;57623;53.608;10.004;2023-07-20T04:47:02;2.73;;;2.60;;
1577;SDS011;57623;53.608;10.004;2023-07-20T04:49:30;3.70;;;3.40;;
1577;SDS011;57623;53.608;10.004;2023-07-20T04:51:58;2.90;;;2.70;;
1577;SDS011;57623;53.608;10.004;2023-07-20T04:54:26;3.10;;;2.90;;
1577;SDS011;57623;53.608;10.004;2023-07-20T04:56:55;2.87;;;2.60;;
1577;SDS011;57623;53.608;10.004;2023-07-20T04:59:23;2.90;;;2.47;;
1577;SDS011;57623;53.608;10.004;2023-07-20T05:01:51;2.83;;;2.63;;
1577;SDS011;57623;53.608;10.004;2023-07-20T05:04:20;3.00;;;2.80;;
1577;SDS011;57623;53.608;10.004;2023-07-20T05:06:48;2.47;;;2.27;;
1577;SDS011;57623;53.608;10.004;2023-07-20T05:09:16;2.97;;;2.67;;
1577;SDS011;57623;53.608;10.004;2023-07-20T05:11:44;2.60;;;2.50;;
1577;SDS011;57623;53.608;10.004;2023-07-20T05:14:15;3.10;;;2.80;;
1577;SDS011;57623;53.608;10.004;2023-07-20T05:16:43;2.77;;;2.60;;
1577;SDS011;57623;53.608;10.004;2023-07-20T05:19:11;3.10;;;2.90;;
1577;SDS011;57623;53.608;10.004;2023-07-20T05:21:39;3.30;;;3.10;;
1577;SDS011;57623;53.608;10.004;2023-07-20T05:24:07;3.40;;;3.20;;
1577;SDS011;57623;53.608;10.004;2023-07-20T05:26:35;3.00;;;2.80;;
1577;SDS011;57623;53.608;10.004;2023-07-20T05:29:04;3.03;;;2.73;;
1577;SDS011;57623;53.608;10.004;2023-07-20T05:31:33;3.60;;;3.30;;
1577;SDS011;57623;53.608;10.004;2023-07-20T05:34:01;4.07;;;3.67;;
1577;SDS011;57623;53.608;10.004;2023-07-20T05:36:29;5.50;;;3.40;;
1577;SDS011;57623;53.608;10.004;2023-07-20T05:38:57;4.43;;;3.33;;
1577;SDS011;57623;53.608;10.004;2023-07-20T05:41:25;4.20;;;3.30;;
1577;SDS011;57623;53.608;10.004;2023-07-20T05:43:53;2.87;;;2.67;;
1577;SDS011;57623;53.608;10.004;2023-07-20T05:46:21;3.00;;;2.70;;
1577;SDS011;57623;53.608;10.004;2023-07-20T05:48:53;3.50;;;3.20;;
1577;SDS011;57623;53.608;10.004;2023-07-20T05:51:21;3.43;;;3.23;;
1577;SDS011;57623;53.608;10.004;2023-07-20T05:53:49;3.27;;;2.97;;
1577;SDS011;57623;53.608;10.004;2023-07-20T05:56:17;3.07;;;2.83;;
1577;SDS011;57623;53.608;10.004;2023-07-20T05:58:45;3.63;;;2.83;;
1577;SDS011;57623;53.608;10.004;2023-07-20T06:01:13;2.80;;;2.60;;
1577;SDS011;57623;53.608;10.004;2023-07-20T06:03:41;2.43;;;2.23;;
1577;SDS011;57623;53.608;10.004;2023-07-20T06:06:11;2.80;;;2.60;;
1577;SDS011;57623;53.608;10.004;2023-07-20T06:08:39;2.70;;;2.50;;
1577;SDS011;57623;53.608;10.004;2023-07-20T06:11:07;2.53;;;2.33;;
1577;SDS011;57623;53.608;10.004;2023-07-20T06:13:35;2.43;;;2.23;;
1577;SDS011;57623;53.608;10.004;2023-07-20T06:16:03;3.13;;;2.53;;
1577;SDS011;57623;53.608;10.004;2023-07-20T06:18:32;2.27;;;2.07;;
1577;SDS011;57623;53.608;10.004;2023-07-20T06:21:00;2.90;;;2.07;;
1577;SDS011;57623;53.608;10.004;2023-07-20T06:23:29;2.10;;;2.00;;
1577;SDS011;57623;53.608;10.004;2023-07-20T06:25:57;2.33;;;2.10;;
1577;SDS011;57623;53.608;10.004;2023-07-20T06:28:25;2.83;;;2.50;;
1577;SDS011;57623;53.608;10.004;2023-07-20T06:30:58;2.00;;;1.90;;
1577;SDS011;57623;53.608;10.004;2023-07-20T06:33:27;1.73;;;1.43;;
1577;SDS011;57623;53.608;10.004;2023-07-20T06:35:55;1.90;;;1.80;;
1577;SDS011;57623;53.608;10.004;2023-07-20T06:38:24;2.20;;;2.00;;
1577;SDS011;57623;53.608;10.004;2023-07-20T06:40:56;2.53;;;2.00;;
1577;SDS011;57623;53.608;10.004;2023-07-20T06:43:44;3.40;;;1.90;;
1577;SDS011;57623;53.608;10.004;2023-07-20T06:46:14;2.53;;;1.70;;
1577;SDS011;57623;53.608;10.004;2023-07-20T06:48:42;4.13;;;3.30;;
1577;SDS011;57623;53.608;10.004;2023-07-20T06:51:13;2.20;;;2.10;;
1577;SDS011;57623;53.608;10.004;2023-07-20T06:53:41;3.10;;;1.83;;
1577;SDS011;57623;53.608;10.004;2023-07-20T06:56:11;2.73;;;1.80;;
1577;SDS011;57623;53.608;10.004;2023-07-20T06:58:38;4.03;;;1.87;;
1577;SDS011;57623;53.608;10.004;2023-07-20T07:01:07;1.90;;;1.70;;
1577;SDS011;57623;53.608;10.004;2023-07-20T07:03:35;3.43;;;1.90;;
1577;SDS011;57623;53.608;10.004;2023-07-20T07:06:04;4.30;;;2.13;;
1577;SDS011;57623;53.608;10.004;2023-07-20T07:08:32;2.13;;;2.03;;
1577;SDS011;57623;53.608;10.004;2023-07-20T07:11:00;2.20;;;1.83;;
1577;SDS011;57623;53.608;10.004;2023-07-20T07:13:29;2.10;;;1.90;;
1577;SDS011;57623;53.608;10.004;2023-07-20T07:15:57;2.27;;;2.03;;
1577;SDS011;57623;53.608;10.004;2023-07-20T07:18:26;2.30;;;2.10;;
1577;SDS011;57623;53.608;10.004;2023-07-20T07:20:54;3.07;;;2.10;;
1577;SDS011;57623;53.608;10.004;2023-07-20T07:23:21;6.73;;;2.23;;
1577;SDS011;57623;53.608;10.004;2023-07-20T07:25:50;2.73;;;1.63;;
1577;SDS011;57623;53.608;10.004;2023-07-20T07:28:18;2.93;;;1.77;;
1577;SDS011;57623;53.608;10.004;2023-07-20T07:30:47;2.60;;;2.10;;
1577;SDS011;57623;53.608;10.004;2023-07-20T07:33:15;2.07;;;1.87;;
1577;SDS011;57623;53.608;10.004;2023-07-20T07:35:43;2.20;;;1.60;;
1577;SDS011;57623;53.608;10.004;2023-07-20T07:38:11;5.10;;;1.97;;
1577;SDS011;57623;53.608;10.004;2023-07-20T07:40:44;3.80;;;1.93;;
1577;SDS011;57623;53.608;10.004;2023-07-20T07:43:12;2.20;;;2.00;;
1577;SDS011;57623;53.608;10.004;2023-07-20T07:45:41;2.30;;;2.10;;
1577;SDS011;57623;53.608;10.004;2023-07-20T07:48:10;2.43;;;2.23;;
1577;SDS011;57623;53.608;10.004;2023-07-20T07:50:39;3.67;;;2.03;;
1577;SDS011;57623;53.608;10.004;2023-07-20T07:53:07;3.57;;;1.83;;
1577;SDS011;57623;53.608;10.004;2023-07-20T07:55:36;2.10;;;1.90;;
1577;SDS011;57623;53.608;10.004;2023-07-20T07:58:04;4.70;;;2.60;;
1577;SDS011;57623;53.608;10.004;2023-07-20T08:00:32;5.10;;;2.87;;
1577;SDS011;57623;53.608;10.004;2023-07-20T08:03:00;4.97;;;2.80;;
1577;SDS011;57623;53.608;10.004;2023-07-20T08:05:29;3.00;;;2.80;;
1577;SDS011;57623;53.608;10.004;2023-07-20T08:07:57;5.50;;;2.70;;
1577;SDS011;57623;53.608;10.004;2023-07-20T08:10:25;3.57;;;2.40;;
1577;SDS011;57623;53.608;10.004;2023-07-20T08:12:53;4.87;;;2.50;;
1577;SDS011;57623;53.608;10.004;2023-07-20T08:15:21;2.87;;;2.67;;
1577;SDS011;57623;53.608;10.004;2023-07-20T08:17:49;4.40;;;2.40;;
1577;SDS011;57623;53.608;10.004;2023-07-20T08:20:18;2.80;;;2.37;;
1577;SDS011;57623;53.608;10.004;2023-07-20T08:22:53;2.70;;;2.30;;
1577;SDS011;57623;53.608;10.004;2023-07-20T08:25:22;5.63;;;2.30;;
1577;SDS011;57623;53.608;10.004;2023-07-20T08:27:50;3.70;;;2.40;;
1577;SDS011;57623;53.608;10.004;2023-07-20T08:30:20;3.00;;;2.30;;
1577;SDS011;57623;53.608;10.004;2023-07-20T08:32:49;3.03;;;2.10;;
1577;SDS011;57623;53.608;10.004;2023-07-20T08:35:17;3.07;;;2.37;;
1577;SDS011;57623;53.608;10.004;2023-07-20T08:37:48;6.50;;;2.27;;
1577;SDS011;57623;53.608;10.004;2023-07-20T08:40:17;4.77;;;2.30;;
1577;SDS011;57623;53.608;10.004;2023-07-20T08:42:45;4.83;;;2.47;;
1577;SDS011;57623;53.608;10.004;2023-07-20T08:45:14;3.87;;;2.07;;
1577;SDS011;57623;53.608;10.004;2023-07-20T08:47:45;5.53;;;2.40;;
1577;SDS011;57623;53.608;10.004;2023-07-20T08:50:16;2.97;;;2.03;;
1577;SDS011;57623;53.608;10.004;2023-07-20T08:52:44;7.30;;;2.90;;
1577;SDS011;57623;53.608;10.004;2023-07-20T08:55:12;3.37;;;2.37;;
1577;SDS011;57623;53.608;10.004;2023-07-20T08:57:41;3.53;;;2.03;;
1577;SDS011;57623;53.608;10.004;2023-07-20T09:00:13;3.07;;;2.53;;
1577;SDS011;57623;53.608;10.004;2023-07-20T09:02:42;2.77;;;2.17;;
1577;SDS011;57623;53.608;10.004;2023-07-20T09:05:13;3.77;;;2.40;;
1577;SDS011;57623;53.608;10.004;2023-07-20T09:07:41;4.00;;;2.40;;
1577;SDS011;57623;53.608;10.004;2023-07-20T09:10:09;2.90;;;2.50;;
1577;SDS011;57623;53.608;10.004;2023-07-20T09:12:40;3.70;;;2.40;;
1577;SDS011;57623;53.608;10.004;2023-07-20T09:15:11;3.27;;;2.40;;
1577;SDS011;57623;53.608;10.004;2023-07-20T09:17:39;4.83;;;2.30;;
1577;SDS011;57623;53.608;10.004;2023-07-20T09:20:14;4.53;;;2.50;;
1577;SDS011;57623;53.608;10.004;2023-07-20T09:22:46;3.83;;;2.30;;
1577;SDS011;57623;53.608;10.004;2023-07-20T09:25:16;3.37;;;2.00;;
1577;SDS011;57623;53.608;10.004;2023-07-20T09:27:49;2.30;;;1.30;;
1577;SDS011;57623;53.608;10.004;2023-07-20T09:30:18;2.00;;;1.60;;
1577;SDS011;57623;53.608;10.004;2023-07-20T09:32:47;3.60;;;1.60;;
1577;SDS011;57623;53.608;10.004;2023-07-20T09:35:20;3.13;;;1.80;;
1577;SDS011;57623;53.608;10.004;2023-07-20T09:37:59;2.10;;;1.43;;
1577;SDS011;57623;53.608;10.004;2023-07-20T09:40:37;2.10;;;1.53;;
1577;SDS011;57623;53.608;10.004;2023-07-20T09:43:10;2.57;;;1.50;;
1577;SDS011;57623;53.608;10.004;2023-07-20T09:45:41;1.90;;;1.27;;
1577;SDS011;57623;53.608;10.004;2023-07-20T09:48:12;4.37;;;1.70;;
1577;SDS011;57623;53.608;10.004;2023-07-20T09:50:49;2.70;;;1.20;;
1577;SDS011;57623;53.608;10.004;2023-07-20T09:53:18;1.67;;;1.20;;
1577;SDS011;57623;53.608;10.004;2023-07-20T09:55:47;3.07;;;1.00;;
1577;SDS011;57623;53.608;10.004;2023-07-20T09:58:17;3.70;;;1.43;;
1577;SDS011;57623;53.608;10.004;2023-07-20T10:00:46;3.30;;;1.20;;
1577;SDS011;57623;53.608;10.004;2023-07-20T10:03:19;1.20;;;1.10;;
1577;SDS011;57623;53.608;10.004;2023-07-20T10:05:51;3.50;;;2.20;;
1577;SDS011;57623;53.608;10.004;2023-07-20T10:08:23;1.77;;;0.90;;
1577;SDS011;57623;53.608;10.004;2023-07-20T10:10:56;1.40;;;1.30;;
1577;SDS011;57623;53.608;10.004;2023-07-20T10:13:29;2.37;;;1.30;;
1577;SDS011;57623;53.608;10.004;2023-07-20T10:15:59;1.97;;;1.20;;
1577;SDS011;57623;53.608;10.004;2023-07-20T10:18:31;1.63;;;1.10;;
1577;SDS011;57623;53.608;10.004;2023-07-20T10:21:07;2.83;;;1.07;;
1577;SDS011;57623;53.608;10.004;2023-07-20T10:23:39;2.30;;;1.20;;
1577;SDS011;57623;53.608;10.004;2023-07-20T10:26:08;2.10;;;1.00;;
1577;SDS011;57623;53.608;10.004;2023-07-20T10:28:38;2.73;;;1.03;;
1577;SDS011;57623;53.608;10.004;2023-07-20T10:31:07;2.43;;;1.00;;
1577;SDS011;57623;53.608;10.004;2023-07-20T10:33:36;1.30;;;1.20;;
1577;SDS011;57623;53.608;10.004;2023-07-20T10:36:05;3.27;;;1.17;;
1577;SDS011;57623;53.608;10.004;2023-07-20T10:38:40;0.97;;;0.90;;
1577;SDS011;57623;53.608;10.004;2023-07-20T10:41:18;1.43;;;0.90;;
1577;SDS011;57623;53.608;10.004;2023-07-20T10:43:49;1.57;;;0.90;;
1577;SDS011;57623;53.608;10.004;2023-07-20T10:49:12;4.67;;;0.90;;
1577;SDS011;57623;53.608;10.004;2023-07-20T10:51:41;2.63;;;1.07;;
1577;SDS011;57623;53.608;10.004;2023-07-20T10:57:21;1.40;;;1.03;;
1577;SDS011;57623;53.608;10.004;2023-07-20T11:02:49;1.10;;;1.00;;
1577;SDS011;57623;53.608;10.004;2023-07-20T11:05:36;2.27;;;1.40;;
1577;SDS011;57623;53.608;10.004;2023-07-20T11:08:09;3.93;;;1.33;;
1577;SDS011;57623;53.608;10.004;2023-07-20T11:10:38;2.53;;;1.20;;
1577;SDS011;57623;53.608;10.004;2023-07-20T11:13:16;2.50;;;1.20;;
1577;SDS011;57623;53.608;10.004;2023-07-20T11:15:46;2.17;;;0.90;;
1577;SDS011;57623;53.608;10.004;2023-07-20T11:18:15;3.33;;;1.00;;
1577;SDS011;57623;53.608;10.004;2023-07-20T11:20:49;2.10;;;1.23;;
1577;SDS011;57623;53.608;10.004;2023-07-20T11:23:18;1.90;;;0.90;;
1577;SDS011;57623;53.608;10.004;2023-07-20T11:25:48;2.47;;;1.23;;
1577;SDS011;57623;53.608;10.004;2023-07-20T11:28:17;2.40;;;1.10;;
1577;SDS011;57623;53.608;10.004;2023-07-20T11:30:49;1.77;;;1.00;;
1577;SDS011;57623;53.608;10.004;2023-07-20T11:33:21;1.63;;;1.10;;
1577;SDS011;57623;53.608;10.004;2023-07-20T11:35:49;1.63;;;0.70;;
1577;SDS011;57623;53.608;10.004;2023-07-20T11:38:19;1.90;;;0.97;;
1577;SDS011;57623;53.608;10.004;2023-07-20T11:40:47;1.33;;;0.60;;
1577;SDS011;57623;53.608;10.004;2023-07-20T11:43:15;1.97;;;0.80;;
1577;SDS011;57623;53.608;10.004;2023-07-20T11:45:47;1.03;;;0.80;;
1577;SDS011;57623;53.608;10.004;2023-07-20T11:48:16;2.53;;;0.93;;
1577;SDS011;57623;53.608;10.004;2023-07-20T11:50:44;0.90;;;0.70;;
1577;SDS011;57623;53.608;10.004;2023-07-20T11:53:12;2.10;;;0.97;;
1577;SDS011;57623;53.608;10.004;2023-07-20T11:55:41;1.90;;;1.03;;
1577;SDS011;57623;53.608;10.004;2023-07-20T11:58:09;0.90;;;0.70;;
1577;SDS011;57623;53.608;10.004;2023-07-20T12:00:38;1.37;;;0.90;;
1577;SDS011;57623;53.608;10.004;2023-07-20T12:03:09;4.77;;;1.33;;
1577;SDS011;57623;53.608;10.004;2023-07-20T12:05:38;2.17;;;0.87;;
1577;SDS011;57623;53.608;10.004;2023-07-20T12:08:26;0.90;;;0.80;;
1577;SDS011;57623;53.608;10.004;2023-07-20T12:10:54;3.20;;;1.00;;
1577;SDS011;57623;53.608;10.004;2023-07-20T12:13:22;2.20;;;1.00;;
1577;SDS011;57623;53.608;10.004;2023-07-20T12:15:52;2.40;;;0.90;;
1577;SDS011;57623;53.608;10.004;2023-07-20T12:18:23;1.27;;;1.00;;
1577;SDS011;57623;53.608;10.004;2023-07-20T12:21:02;1.33;;;1.10;;
1577;SDS011;57623;53.608;10.004;2023-07-20T12:23:34;2.27;;;1.30;;
1577;SDS011;57623;53.608;10.004;2023-07-20T12:26:03;3.03;;;1.37;;
1577;SDS011;57623;53.608;10.004;2023-07-20T12:28:35;2.50;;;1.20;;
1577;SDS011;57623;53.608;10.004;2023-07-20T12:31:08;3.70;;;1.20;;
1577;SDS011;57623;53.608;10.004;2023-07-20T12:33:38;3.00;;;1.23;;
1577;SDS011;57623;53.608;10.004;2023-07-20T12:36:06;1.80;;;1.10;;
1577;SDS011;57623;53.608;10.004;2023-07-20T12:38:34;4.27;;;1.40;;
1577;SDS011;57623;53.608;10.004;2023-07-20T12:41:02;2.37;;;1.30;;
1577;SDS011;57623;53.608;10.004;2023-07-20T12:43:31;2.47;;;1.30;;
1577;SDS011;57623;53.608;10.004;2023-07-20T12:45:59;2.83;;;1.17;;
1577;SDS011;57623;53.608;10.004;2023-07-20T12:48:27;2.00;;;1.20;;
1577;SDS011;57623;53.608;10.004;2023-07-20T12:50:57;2.17;;;0.90;;
1577;SDS011;57623;53.608;10.004;2023-07-20T12:53:25;2.40;;;1.10;;
1577;SDS011;57623;53.608;10.004;2023-07-20T12:55:53;1.87;;;1.20;;
1577;SDS011;57623;53.608;10.004;2023-07-20T12:58:21;1.37;;;1.10;;
1577;SDS011;57623;53.608;10.004;2023-07-20T13:00:49;3.73;;;1.50;;
1577;SDS011;57623;53.608;10.004;2023-07-20T13:03:18;2.00;;;1.10;;
1577;SDS011;57623;53.608;10.004;2023-07-20T13:05:49;1.93;;;0.83;;
1577;SDS011;57623;53.608;10.004;2023-07-20T13:08:21;1.30;;;0.80;;
1577;SDS011;57623;53.608;10.004;2023-07-20T13:10:51;1.87;;;0.90;;
1577;SDS011;57623;53.608;10.004;2023-07-20T13:13:19;1.00;;;0.83;;
1577;SDS011;57623;53.608;10.004;2023-07-20T13:15:48;0.93;;;0.60;;
1577;SDS011;57623;53.608;10.004;2023-07-20T13:18:16;2.10;;;0.73;;
1577;SDS011;57623;53.608;10.004;2023-07-20T13:20:45;1.17;;;0.70;;
1577;SDS011;57623;53.608;10.004;2023-07-20T13:23:13;1.83;;;1.07;;
1577;SDS011;57623;53.608;10.004;2023-07-20T13:25:42;0.70;;;0.67;;
1577;SDS011;57623;53.608;10.004;2023-07-20T13:28:10;1.20;;;1.00;;
1577;SDS011;57623;53.608;10.004;2023-07-20T13:30:38;1.43;;;1.00;;
1577;SDS011;57623;53.608;10.004;2023-07-20T13:33:07;1.83;;;1.17;;
1577;SDS011;57623;53.608;10.004;2023-07-20T13:35:38;1.77;;;0.90;;
1577;SDS011;57623;53.608;10.004;2023-07-20T13:38:10;1.90;;;0.80;;
1577;SDS011;57623;53.608;10.004;2023-07-20T13:40:38;3.40;;;1.00;;
1577;SDS011;57623;53.608;10.004;2023-07-20T13:43:08;2.07;;;1.00;;
1577;SDS011;57623;53.608;10.004;2023-07-20T13:45:36;2.40;;;1.03;;
1577;SDS011;57623;53.608;10.004;2023-07-20T13:48:05;1.80;;;1.37;;
1577;SDS011;57623;53.608;10.004;2023-07-20T13:50:33;1.97;;;1.00;;
1577;SDS011;57623;53.608;10.004;2023-07-20T13:53:04;1.67;;;0.97;;
1577;SDS011;57623;53.608;10.004;2023-07-20T13:55:35;2.00;;;0.90;;
1577;SDS011;57623;53.608;10.004;2023-07-20T13:58:08;2.30;;;0.80;;
1577;SDS011;57623;53.608;10.004;2023-07-20T14:00:39;2.03;;;1.30;;
1577;SDS011;57623;53.608;10.004;2023-07-20T14:03:07;1.00;;;0.70;;
1577;SDS011;57623;53.608;10.004;2023-07-20T14:05:38;0.80;;;0.70;;
1577;SDS011;57623;53.608;10.004;2023-07-20T14:08:09;1.47;;;0.80;;
1577;SDS011;57623;53.608;10.004;2023-07-20T14:10:37;1.07;;;0.83;;
1577;SDS011;57623;53.608;10.004;2023-07-20T14:13:09;2.40;;;1.17;;
1577;SDS011;57623;53.608;10.004;2023-07-20T14:15:38;1.50;;;0.80;;
1577;SDS011;57623;53.608;10.004;2023-07-20T14:18:06;3.33;;;0.90;;
1577;SDS011;57623;53.608;10.004;2023-07-20T14:20:34;1.57;;;0.90;;
1577;SDS011;57623;53.608;10.004;2023-07-20T14:23:04;1.30;;;0.83;;
1577;SDS011;57623;53.608;10.004;2023-07-20T14:25:32;1.47;;;0.87;;
1577;SDS011;57623;53.608;10.004;2023-07-20T14:28:03;1.40;;;1.00;;
1577;SDS011;57623;53.608;10.004;2023-07-20T14:30:33;2.10;;;1.17;;
1577;SDS011;57623;53.608;10.004;2023-07-20T14:33:01;3.87;;;1.10;;
1577;SDS011;57623;53.608;10.004;2023-07-20T14:35:29;2.17;;;1.00;;
1577;SDS011;57623;53.608;10.004;2023-07-20T14:37:57;0.93;;;0.80;;
1577;SDS011;57623;53.608;10.004;2023-07-20T14:40:25;2.73;;;0.90;;
1577;SDS011;57623;53.608;10.004;2023-07-20T14:42:53;1.40;;;0.70;;
1577;SDS011;57623;53.608;10.004;2023-07-20T14:45:22;1.47;;;0.90;;
1577;SDS011;57623;53.608;10.004;2023-07-20T14:47:51;1.33;;;0.70;;
1577;SDS011;57623;53.608;10.004;2023-07-20T14:50:20;0.87;;;0.80;;
1577;SDS011;57623;53.608;10.004;2023-07-20T14:52:49;2.20;;;1.13;;
1577;SDS011;57623;53.608;10.004;2023-07-20T14:55:17;1.20;;;1.10;;
1577;SDS011;57623;53.608;10.004;2023-07-20T14:57:45;0.73;;;0.73;;
1577;SDS011;57623;53.608;10.004;2023-07-20T15:00:14;1.87;;;1.10;;
1577;SDS011;57623;53.608;10.004;2023-07-20T15:02:43;2.10;;;0.90;;
1577;SDS011;57623;53.608;10.004;2023-07-20T15:05:17;1.97;;;1.30;;
1577;SDS011;57623;53.608;10.004;2023-07-20T15:07:48;3.93;;;1.20;;
1577;SDS011;57623;53.608;10.004;2023-07-20T15:10:16;1.33;;;1.10;;